Главная страница
METAR-TAF:

METAR-TAF

Аэропорты :

Амман, Иордания

широта: 31-59N, долгота: 035-59E, высота над уровнем моря: 767 м

Текущие метеонаблюдения

Эта сводка был подготовлена 33 минут назад, в 06:00 UTC
Ветер 9 Узел от западный-юго-западный
Температура 23°C
Влажность 61%
Давление 1013 hPa
Видимость: 4000 м
Рассеянная облачность на высоте 3000 фута
мгла

METAR: OJAM 170600Z 25009KT 4000 HZ BKN030 23/15 Q1013 NOSIG

Время: 09:33 (06:33 UTC)

Прогноз

Эта сводка был подготовлена 1 час и 33 минут назад, в 05:00 UTC
Прогноз действительный с 17-го 06 UTC до 18-го 12 UTC
Ветер 10 Узел от западно-северо-западный
Видимость: 5000 м
мгла

TAF: OJAM 170500Z 1706/1812 30010KT 5000 HZ NSC

Метеонаблюдения и прогнозы для более 4000 аэропортов (сводки METAR и TAF).

Имеющиеся станции представлены на карте желтыми и красными точками.

Чтобы увидеть название станции, наведите на нее мышь.

Затем щелкните, чтобы увидеть метеонаблюдения и метеопрогнозы.

Управление картой: чтобы увеличить масштаб, щелкните зеленые кнопки с черным крестиком; чтобы уменьшить масштаб, щелкните зеленую кнопку с тире; для просмотра соседних карт щелкайте зеленые стрелки.


METAR-TAF: